Time;durP1;ratioP1;P1;durP2;ratioP2;P2;SDS_P1;SDS_P2;PMS_P1;PMS_P2;Temp;Humidity;BMP_temperature;BMP_pressure;BME280_temperature;BME280_humidity;BME280_pressure;Samples;Min_cycle;Max_cycle;Signal;HPM_P1;HPM_P2
2023/06/02 00:01:32;;;;;;;8.03;3.57;;;;;;;9.35;nan;100930.09;5078724;28;20046;-82
2023/06/02 00:04:04;;;;;;;7.80;3.30;;;;;;;9.45;nan;100918.56;5085474;28;20042;-81
2023/06/02 00:06:33;;;;;;;5.77;3.20;;;;;;;9.43;nan;100916.84;5072511;28;20039;-81
2023/06/02 00:09:04;;;;;;;8.00;2.87;;;;;;;9.51;nan;100921.13;5061154;28;20412;-79
2023/06/02 00:11:34;;;;;;;8.03;3.17;;;;;;;9.28;nan;100929.28;5074375;28;20043;-80
2023/06/02 00:14:05;;;;;;;7.67;3.17;;;;;;;9.18;nan;100924.13;5066384;28;20036;-79
2023/06/02 00:16:41;;;;;;;5.53;3.07;;;;;;;9.27;nan;100929.31;5089104;28;20035;-79
2023/06/02 00:19:11;;;;;;;9.70;3.20;;;;;;;9.17;nan;100932.94;5104067;28;20229;-79
2023/06/02 00:21:39;;;;;;;6.43;3.33;;;;;;;9.16;nan;100936.44;5085929;28;20038;-80
2023/06/02 00:24:07;;;;;;;8.40;3.20;;;;;;;9.13;nan;100936.47;5068104;28;20225;-81
2023/06/02 00:26:36;;;;;;;9.70;3.40;;;;;;;9.00;nan;100936.63;5090114;28;20042;-82
2023/06/02 00:29:02;;;;;;;8.33;3.17;;;;;;;9.04;nan;100929.53;5065973;28;20059;-82
2023/06/02 00:31:30;;;;;;;9.73;3.27;;;;;;;8.96;nan;100937.50;5086732;28;20527;-82
2023/06/02 00:33:57;;;;;;;7.30;3.30;;;;;;;8.89;nan;100927.91;5058775;28;20055;-82
2023/06/02 00:36:24;;;;;;;7.47;4.00;;;;;;;8.89;nan;100927.91;5089432;28;20027;-81
2023/06/02 00:38:51;;;;;;;5.97;3.23;;;;;;;8.85;nan;100935.88;5085922;28;20039;-82
2023/06/02 00:41:18;;;;;;;6.03;3.40;;;;;;;8.84;nan;100936.78;5069535;28;20130;-82
2023/06/02 00:43:45;;;;;;;8.00;3.47;;;;;;;8.90;nan;100929.66;5077936;28;20091;-82
2023/06/02 00:46:12;;;;;;;5.63;3.07;;;;;;;8.87;nan;100932.34;5083005;28;20121;-81
2023/06/02 00:48:39;;;;;;;6.70;3.50;;;;;;;8.81;nan;100928.88;5073182;28;20080;-82
2023/06/02 00:51:06;;;;;;;9.23;3.63;;;;;;;8.84;nan;100935.00;5098461;28;20088;-82
2023/06/02 00:53:34;;;;;;;7.37;3.10;;;;;;;8.81;nan;100936.78;5094558;28;20072;-81
2023/06/02 00:56:01;;;;;;;6.33;3.13;;;;;;;8.77;nan;100941.22;5091321;28;20060;-81
2023/06/02 00:58:28;;;;;;;8.77;3.60;;;;;;;8.67;nan;100940.41;5093798;28;20063;-81
2023/06/02 01:00:57;;;;;;;8.63;3.43;;;;;;;8.66;nan;100943.94;5106951;28;20062;-81
2023/06/02 01:03:26;;;;;;;8.00;3.33;;;;;;;8.73;nan;100950.88;5094339;28;20072;-81
2023/06/02 01:05:55;;;;;;;8.27;3.83;;;;;;;8.68;nan;100951.81;5099906;28;20052;-82
2023/06/02 01:08:23;;;;;;;9.10;3.20;;;;;;;8.63;nan;100959.75;5096626;28;20063;-82
2023/06/02 01:10:50;;;;;;;12.07;4.23;;;;;;;8.61;nan;100956.25;5104354;28;20143;-80
2023/06/02 01:13:17;;;;;;;7.63;3.60;;;;;;;8.61;nan;100955.41;5083452;28;20064;-82
2023/06/02 01:15:46;;;;;;;8.70;3.50;;;;;;;8.66;nan;100948.31;5084301;28;20067;-81
2023/06/02 01:18:14;;;;;;;6.70;3.40;;;;;;;8.66;nan;100958.84;5099180;28;20063;-82
2023/06/02 01:20:49;;;;;;;9.37;3.93;;;;;;;8.65;nan;100963.25;5077507;28;20080;-83
2023/06/02 01:23:18;;;;;;;10.90;4.67;;;;;;;8.64;nan;100958.84;5092882;28;20063;-81
2023/06/02 01:25:47;;;;;;;9.43;4.53;;;;;;;8.64;nan;100968.53;5098061;28;20363;-83
2023/06/02 01:28:14;;;;;;;6.57;3.60;;;;;;;8.70;nan;100961.47;5101873;28;20362;-82
2023/06/02 01:30:43;;;;;;;7.67;4.10;;;;;;;8.70;nan;100965.84;5095745;28;20087;-83
2023/06/02 01:33:21;;;;;;;7.30;3.80;;;;;;;8.80;nan;100958.75;5100177;28;20059;-83
2023/06/02 01:35:50;;;;;;;7.77;3.50;;;;;;;8.79;nan;100963.13;5106435;28;20090;-84
2023/06/02 01:38:17;;;;;;;6.83;3.27;;;;;;;8.87;nan;100955.19;5098697;28;20062;-81
2023/06/02 01:40:45;;;;;;;7.03;3.43;;;;;;;8.82;nan;100967.50;5098199;28;20078;-82
2023/06/02 01:43:13;;;;;;;10.53;4.10;;;;;;;8.99;nan;100968.22;5098306;28;20056;-84
2023/06/02 01:45:41;;;;;;;9.57;3.77;;;;;;;8.90;nan;100957.78;5084853;28;20059;-80
2023/06/02 01:48:08;;;;;;;8.23;4.00;;;;;;;9.02;nan;100958.56;5099699;28;20078;-81
2023/06/02 01:50:37;;;;;;;7.13;3.87;;;;;;;9.06;nan;100958.50;5126050;28;20063;-82
2023/06/02 01:53:04;;;;;;;8.07;4.00;;;;;;;9.06;nan;100961.13;5106351;28;20135;-82
2023/06/02 01:55:32;;;;;;;11.37;5.17;;;;;;;9.05;nan;100956.75;5119760;28;20071;-81
2023/06/02 01:57:59;;;;;;;12.53;4.40;;;;;;;9.06;nan;100963.78;5112420;28;20297;-82
2023/06/02 02:00:26;;;;;;;8.37;3.10;;;;;;;9.02;nan;100953.28;5107854;28;20055;-81
2023/06/02 02:02:57;;;;;;;7.50;3.40;;;;;;;9.10;nan;100957.59;5111748;28;20067;-81
2023/06/02 02:05:24;;;;;;;5.70;3.07;;;;;;;9.13;nan;100965.47;5090738;28;20063;-81
2023/06/02 02:07:52;;;;;;;8.50;3.97;;;;;;;9.22;nan;100966.25;5084565;28;20050;-82
2023/06/02 02:10:19;;;;;;;8.07;3.80;;;;;;;9.23;nan;100964.47;5084670;28;20063;-82
2023/06/02 02:12:46;;;;;;;5.93;4.20;;;;;;;9.20;nan;100962.75;5096213;28;20046;-82
2023/06/02 02:15:13;;;;;;;10.37;3.20;;;;;;;9.27;nan;100963.59;5079916;28;20050;-82
2023/06/02 02:17:44;;;;;;;8.77;3.93;;;;;;;9.31;nan;100971.44;5113894;28;20031;-83
2023/06/02 02:20:13;;;;;;;7.10;3.77;;;;;;;9.26;nan;100961.84;5104406;28;20038;-83
2023/06/02 02:22:40;;;;;;;6.70;3.63;;;;;;;9.37;nan;100969.63;5094048;28;20045;-82
2023/06/02 02:25:08;;;;;;;6.60;3.80;;;;;;;9.37;nan;100973.13;5076657;28;20382;-81
2023/06/02 02:27:35;;;;;;;9.23;3.53;;;;;;;9.35;nan;100974.94;5094425;28;20040;-83
2023/06/02 02:30:03;;;;;;;6.13;3.17;;;;;;;9.34;nan;100970.53;5094373;28;20044;-83
2023/06/02 02:32:35;;;;;;;7.03;3.70;;;;;;;9.26;nan;100972.38;5083749;28;20028;-81
2023/06/02 02:35:03;;;;;;;11.90;4.30;;;;;;;9.27;nan;100972.38;5114432;28;20061;-83
2023/06/02 02:37:30;;;;;;;11.00;3.70;;;;;;;9.28;nan;100976.75;5096431;28;20035;-82
2023/06/02 02:40:11;;;;;;;6.97;3.87;;;;;;;9.35;nan;100977.56;5062824;28;20046;-83
2023/06/02 02:42:38;;;;;;;6.07;3.60;;;;;;;9.33;nan;100979.31;5093365;28;20050;-82
2023/06/02 02:45:07;;;;;;;14.03;4.20;;;;;;;9.39;nan;100978.38;5077184;28;20500;-82
2023/06/02 02:47:34;;;;;;;9.83;3.93;;;;;;;9.20;nan;100978.59;5112422;28;20035;-82
2023/06/02 02:50:01;;;;;;;12.63;3.87;;;;;;;9.33;nan;100981.94;5095257;28;20038;-84
2023/06/02 02:52:28;;;;;;;10.57;4.73;;;;;;;9.36;nan;100986.34;5095336;28;20050;-82
2023/06/02 02:54:55;;;;;;;7.27;4.00;;;;;;;9.34;nan;100978.47;5113135;28;20487;-82
2023/06/02 02:57:22;;;;;;;9.37;3.30;;;;;;;9.33;nan;100987.22;5094782;28;20416;-82
2023/06/02 02:59:49;;;;;;;8.23;3.60;;;;;;;9.43;nan;100990.66;5095273;28;20044;-83
2023/06/02 03:02:16;;;;;;;9.68;3.67;;;;;;;9.40;nan;100983.63;5095072;28;20042;-83
2023/06/02 03:04:43;;;;;;;10.43;4.47;;;;;;;9.44;nan;100997.69;5091366;28;20046;-83
2023/06/02 03:07:10;;;;;;;13.67;3.97;;;;;;;9.45;nan;100995.03;5073852;28;20036;-81
2023/06/02 03:09:39;;;;;;;12.70;3.77;;;;;;;9.48;nan;100999.38;5063780;28;20035;-83
2023/06/02 03:12:06;;;;;;;13.20;4.27;;;;;;;9.49;nan;101001.13;5087739;28;20046;-83
2023/06/02 03:14:33;;;;;;;10.47;3.87;;;;;;;9.44;nan;101006.47;5054687;28;20490;-83
2023/06/02 03:17:01;;;;;;;8.40;4.23;;;;;;;9.48;nan;101009.94;5041359;28;20404;-82
2023/06/02 03:19:28;;;;;;;8.88;3.78;;;;;;;9.44;nan;101014.38;5090142;28;20345;-82
2023/06/02 03:21:56;;;;;;;6.60;4.03;;;;;;;9.45;nan;101008.22;5095548;28;20042;-82
2023/06/02 03:24:24;;;;;;;6.72;3.83;;;;;;;9.52;nan;101016.94;5095707;28;20039;-81
2023/06/02 03:26:55;;;;;;;12.90;4.00;;;;;;;9.53;nan;101018.69;5091171;28;20050;-82
2023/06/02 03:29:22;;;;;;;8.63;4.80;;;;;;;9.58;nan;101020.41;5089127;28;20202;-81
2023/06/02 03:31:54;;;;;;;9.50;5.15;;;;;;;9.59;nan;101021.28;5092379;28;20035;-82
2023/06/02 03:34:22;;;;;;;14.47;4.40;;;;;;;9.63;nan;101019.47;5090195;28;20481;-82
2023/06/02 03:36:49;;;;;;;6.22;3.92;;;;;;;9.63;nan;101020.31;5102660;28;20467;-82
2023/06/02 03:39:16;;;;;;;12.80;4.40;;;;;;;9.73;nan;101021.09;5090455;28;20123;-81
2023/06/02 03:41:43;;;;;;;13.48;4.40;;;;;;;9.75;nan;101025.50;5098620;28;20460;-81
2023/06/02 03:44:11;;;;;;;11.70;4.65;;;;;;;9.85;nan;101021.84;5096353;28;20115;-81
2023/06/02 03:46:37;;;;;;;14.23;6.22;;;;;;;9.91;nan;101038.47;5076329;28;20099;-81
2023/06/02 03:49:04;;;;;;;14.73;5.22;;;;;;;9.91;nan;101030.56;5090793;28;20096;-81
2023/06/02 03:51:31;;;;;;;8.88;3.97;;;;;;;9.97;nan;101027.84;5112636;28;20123;-81
2023/06/02 03:53:58;;;;;;;10.13;5.15;;;;;;;10.03;nan;101041.88;5077041;28;20659;-81
2023/06/02 03:56:25;;;;;;;17.75;5.35;;;;;;;10.00;nan;101041.00;5078572;28;20099;-81
2023/06/02 03:58:53;;;;;;;11.38;4.18;;;;;;;10.02;nan;101041.88;5084689;28;20110;-82
2023/06/02 04:01:23;;;;;;;9.23;4.30;;;;;;;10.06;nan;101046.22;5113275;28;20127;-82
2023/06/02 04:03:50;;;;;;;9.90;4.53;;;;;;;10.11;nan;101053.22;5081697;28;20087;-81
2023/06/02 04:06:17;;;;;;;11.55;4.88;;;;;;;10.12;nan;101043.53;5098079;28;20733;-81
2023/06/02 04:08:46;;;;;;;10.77;3.80;;;;;;;10.15;nan;101044.34;5069603;28;20088;-82
2023/06/02 04:11:13;;;;;;;9.50;3.70;;;;;;;10.20;nan;101039.00;5092115;28;20103;-81
2023/06/02 04:13:40;;;;;;;9.73;4.30;;;;;;;10.28;nan;101053.03;5078559;28;20107;-81
2023/06/02 04:16:07;;;;;;;14.05;4.53;;;;;;;10.38;nan;101059.06;5077280;28;20115;-81
2023/06/02 04:18:39;;;;;;;10.18;4.30;;;;;;;10.36;nan;101059.09;5064321;28;20128;-81
2023/06/02 04:21:06;;;;;;;10.45;3.65;;;;;;;10.35;nan;101069.69;5084438;28;20151;-81
2023/06/02 04:23:33;;;;;;;8.10;4.13;;;;;;;10.44;nan;101064.25;5074342;28;20110;-81
2023/06/02 04:26:00;;;;;;;9.68;4.15;;;;;;;10.47;nan;101072.13;5078227;28;20209;-81
2023/06/02 04:28:28;;;;;;;9.88;3.50;;;;;;;10.49;nan;101075.63;5085792;28;20498;-80
2023/06/02 04:30:56;;;;;;;9.63;4.07;;;;;;;10.57;nan;101065.81;5074906;28;20040;-81
2023/06/02 04:33:23;;;;;;;9.98;4.03;;;;;;;10.63;nan;101070.16;5091644;28;20040;-80
2023/06/02 04:35:50;;;;;;;7.65;4.07;;;;;;;10.63;nan;101075.44;5078214;28;20735;-80
2023/06/02 04:38:17;;;;;;;7.97;3.60;;;;;;;10.66;nan;101070.97;5092564;28;20210;-80
2023/06/02 04:40:45;;;;;;;11.02;4.15;;;;;;;10.74;nan;101084.09;5081402;28;20028;-80
2023/06/02 04:43:12;;;;;;;10.10;3.80;;;;;;;10.77;nan;101077.91;5066068;28;20040;-79
2023/06/02 04:45:43;;;;;;;9.07;3.90;;;;;;;10.84;nan;101075.13;5068320;28;20155;-80
2023/06/02 04:48:11;;;;;;;7.43;3.63;;;;;;;10.93;nan;101074.09;5072080;27;20031;-81
2023/06/02 04:50:38;;;;;;;9.70;4.68;;;;;;;11.09;nan;101077.38;5073059;28;20031;-80
2023/06/02 04:53:05;;;;;;;11.07;5.85;;;;;;;11.10;nan;101076.47;5085246;28;20048;-80
2023/06/02 04:55:32;;;;;;;9.68;4.60;;;;;;;11.19;nan;101082.53;5059027;28;20195;-80
2023/06/02 04:57:59;;;;;;;11.05;4.68;;;;;;;11.24;nan;101090.38;5091294;28;20053;-80
2023/06/02 05:00:28;;;;;;;13.07;4.60;;;;;;;11.36;nan;101084.03;5065687;28;20052;-80
2023/06/02 05:02:55;;;;;;;12.27;4.53;;;;;;;11.55;nan;101086.31;5079249;28;20513;-79
2023/06/02 05:05:22;;;;;;;13.85;4.47;;;;;;;11.74;nan;101096.56;5065188;28;20114;-80
2023/06/02 05:07:51;;;;;;;12.80;5.63;;;;;;;11.87;nan;101094.59;5073853;28;20428;-80
2023/06/02 05:10:18;;;;;;;8.38;4.45;;;;;;;11.84;nan;101096.38;5076540;28;20233;-80
2023/06/02 05:12:47;;;;;;;10.93;5.07;;;;;;;11.97;nan;101096.19;5070202;28;20035;-81
2023/06/02 05:15:14;;;;;;;12.85;4.20;;;;;;;12.07;nan;101100.38;5088797;28;20040;-80
2023/06/02 05:17:43;;;;;;;27.38;7.57;;;;;;;12.18;nan;101095.72;5074753;28;20032;-81
2023/06/02 05:20:11;;;;;;;16.27;6.43;;;;;;;12.26;nan;101101.75;5091600;28;20036;-80
2023/06/02 05:22:38;;;;;;;11.68;5.35;;;;;;;12.14;nan;101102.00;5085757;28;20511;-80
2023/06/02 05:25:06;;;;;;;13.18;4.70;;;;;;;12.22;nan;101109.81;5089964;28;20042;-80
2023/06/02 05:27:37;;;;;;;10.20;5.78;;;;;;;12.48;nan;101106.63;5077957;28;20038;-81
2023/06/02 05:30:04;;;;;;;17.23;5.78;;;;;;;12.46;nan;101104.00;5074143;28;20042;-80
2023/06/02 05:32:31;;;;;;;11.20;5.22;;;;;;;12.63;nan;101106.28;5112873;27;20034;-81
2023/06/02 05:34:58;;;;;;;10.10;4.38;;;;;;;12.59;nan;101113.44;5109611;28;20041;-80
2023/06/02 05:37:25;;;;;;;10.80;5.22;;;;;;;12.56;nan;101105.56;5078281;28;20040;-80
2023/06/02 05:39:52;;;;;;;8.00;4.53;;;;;;;12.93;nan;101115.31;5064615;28;20032;-79
2023/06/02 05:42:19;;;;;;;8.40;3.67;;;;;;;13.13;nan;101106.94;5069757;28;20044;-78
2023/06/02 05:44:47;;;;;;;7.05;3.67;;;;;;;13.24;nan;101110.22;5093457;28;20043;-79
2023/06/02 05:47:14;;;;;;;6.80;3.55;;;;;;;13.29;nan;101108.34;5063134;28;20507;-81
2023/06/02 05:49:41;;;;;;;7.05;2.80;;;;;;;13.39;nan;101120.47;5111997;28;20515;-80
2023/06/02 05:52:08;;;;;;;8.32;3.65;;;;;;;13.49;nan;101124.63;5073425;28;20032;-80
2023/06/02 05:54:34;;;;;;;7.68;3.28;;;;;;;13.57;nan;101124.44;5096924;28;20042;-79
2023/06/02 05:57:02;;;;;;;6.30;3.15;;;;;;;13.59;nan;101129.69;5070592;28;20035;-80
2023/06/02 05:59:29;;;;;;;6.80;2.65;;;;;;;13.70;nan;101132.94;5061034;28;20500;-81
2023/06/02 06:01:56;;;;;;;4.05;2.28;;;;;;;13.79;nan;101132.72;5096674;28;20043;-80
2023/06/02 06:04:23;;;;;;;3.45;2.38;;;;;;;13.97;nan;101137.56;5093143;28;20039;-80
2023/06/02 06:06:50;;;;;;;5.80;2.55;;;;;;;14.29;nan;101128.69;5079770;28;20032;-81
2023/06/02 06:09:17;;;;;;;4.38;2.47;;;;;;;14.46;nan;101133.56;5095771;28;20052;-79
2023/06/02 06:11:46;;;;;;;7.50;2.92;;;;;;;14.57;nan;101142.09;5131551;27;20046;-79
2023/06/02 06:14:13;;;;;;;3.90;2.00;;;;;;;14.52;nan;101151.09;5125931;27;20116;-81
2023/06/02 06:16:41;;;;;;;7.45;3.08;;;;;;;14.45;nan;101147.75;5079603;28;20032;-80
2023/06/02 06:19:08;;;;;;;6.40;2.60;;;;;;;14.90;nan;101155.31;5087151;28;20036;-80
2023/06/02 06:21:36;;;;;;;6.57;2.80;;;;;;;15.20;nan;101151.66;5073428;28;20217;-80
2023/06/02 06:24:05;;;;;;;4.93;2.10;;;;;;;15.43;nan;101156.25;5084969;28;20028;-81
2023/06/02 06:26:32;;;;;;;3.75;1.75;;;;;;;15.75;nan;101155.22;5095763;28;20496;-80
2023/06/02 06:28:59;;;;;;;4.25;1.80;;;;;;;16.24;nan;101158.84;5080949;28;20496;-80
2023/06/02 06:31:26;;;;;;;3.30;2.00;;;;;;;16.45;nan;101164.31;5091884;28;20034;-80
2023/06/02 06:33:53;;;;;;;3.88;2.30;;;;;;;16.22;nan;101166.00;5086535;28;20053;-80
2023/06/02 06:36:20;;;;;;;4.45;2.22;;;;;;;16.36;nan;101170.00;5115412;28;20480;-81
2023/06/02 06:38:47;;;;;;;3.08;1.75;;;;;;;16.16;nan;101176.06;5082921;28;20400;-82
2023/06/02 06:41:13;;;;;;;3.45;2.28;;;;;;;16.44;nan;101175.91;5070122;28;20032;-81
2023/06/02 06:43:40;;;;;;;3.20;2.10;;;;;;;16.73;nan;101166.84;5078491;28;20044;-81
2023/06/02 06:46:07;;;;;;;4.28;2.05;;;;;;;17.12;nan;101173.31;5066240;28;20039;-82
2023/06/02 06:48:34;;;;;;;5.38;1.88;;;;;;;17.34;nan;101186.72;5060743;28;20043;-81
2023/06/02 06:51:01;;;;;;;3.38;1.40;;;;;;;16.98;nan;101182.78;5080543;28;20048;-81
2023/06/02 06:53:28;;;;;;;3.47;1.60;;;;;;;17.27;nan;101190.56;5088977;28;20032;-80
2023/06/02 06:55:55;;;;;;;4.80;1.75;;;;;;;17.49;nan;101189.66;5085926;28;20062;-80
2023/06/02 06:58:22;;;;;;;2.75;1.20;;;;;;;17.57;nan;101190.22;5086835;28;20036;-80
2023/06/02 07:00:49;;;;;;;3.63;2.03;;;;;;;17.47;nan;101194.22;5077329;28;20035;-82
2023/06/02 07:03:16;;;;;;;3.40;1.50;;;;;;;17.33;nan;101198.31;5077979;28;20047;-79
2023/06/02 07:05:43;;;;;;;2.92;1.77;;;;;;;17.41;nan;101200.69;5070631;28;20046;-81
2023/06/02 07:08:10;;;;;;;2.80;1.42;;;;;;;17.31;nan;101201.97;5094838;28;20039;-81
2023/06/02 07:10:37;;;;;;;5.28;2.22;;;;;;;17.18;nan;101214.94;5094504;28;20036;-81
2023/06/02 07:13:04;;;;;;;3.75;1.55;;;;;;;17.12;nan;101212.50;5058102;28;20040;-81
2023/06/02 07:15:31;;;;;;;5.40;1.88;;;;;;;16.80;nan;101219.06;5062970;28;20486;-81
2023/06/02 07:17:58;;;;;;;2.53;1.20;;;;;;;16.74;nan;101220.19;5057483;28;20052;-81
2023/06/02 07:20:25;;;;;;;1.95;1.63;;;;;;;16.31;nan;101229.72;5057915;28;20515;-81
2023/06/02 07:22:52;;;;;;;2.45;1.27;;;;;;;16.19;nan;101227.44;5077410;28;20485;-80
2023/06/02 07:25:19;;;;;;;3.13;1.42;;;;;;;16.02;nan;101233.34;5080371;28;20039;-80
2023/06/02 07:27:46;;;;;;;5.95;1.67;;;;;;;16.11;nan;101241.97;5092921;28;20043;-81
2023/06/02 07:30:13;;;;;;;5.03;1.52;;;;;;;15.99;nan;101235.28;5094422;28;20046;-81
2023/06/02 07:32:40;;;;;;;1.92;1.30;;;;;;;15.96;nan;101251.34;5074733;28;20074;-82
2023/06/02 07:35:07;;;;;;;242.25;32.00;;;;;;;15.79;nan;101243.03;5094350;28;20477;-80
2023/06/02 07:37:34;;;;;;;27.80;4.53;;;;;;;15.96;nan;101249.53;5110753;27;20042;-81
2023/06/02 07:40:01;;;;;;;6.60;2.08;;;;;;;16.21;nan;101248.72;5075275;28;20054;-82
2023/06/02 07:42:28;;;;;;;3.97;1.33;;;;;;;16.50;nan;101245.91;5093029;28;20032;-81
2023/06/02 07:44:55;;;;;;;3.25;1.23;;;;;;;16.64;nan;101250.75;5094857;28;20048;-81
2023/06/02 07:47:22;;;;;;;2.35;1.10;;;;;;;16.49;nan;101251.31;5093542;27;20431;-82
2023/06/02 07:49:49;;;;;;;3.67;1.30;;;;;;;16.48;nan;101252.22;5090178;27;20043;-81
2023/06/02 07:52:16;;;;;;;3.63;1.55;;;;;;;15.85;nan;101258.81;5092535;28;20035;-82
2023/06/02 07:54:45;;;;;;;2.97;1.20;;;;;;;16.00;nan;101259.19;5095108;28;20515;-81
2023/06/02 07:57:12;;;;;;;4.07;1.63;;;;;;;16.00;nan;101256.53;5103605;28;20035;-81
2023/06/02 07:59:39;;;;;;;2.65;1.45;;;;;;;15.97;nan;101251.28;5078596;28;20525;-82
2023/06/02 08:02:06;;;;;;;2.55;1.52;;;;;;;16.09;nan;101246.47;5078495;28;20393;-81
2023/06/02 08:04:33;;;;;;;2.58;1.13;;;;;;;16.27;nan;101252.06;5095025;28;20404;-82
2023/06/02 08:07:00;;;;;;;84.82;11.60;;;;;;;16.35;nan;101250.91;5077488;28;20043;-81
2023/06/02 08:09:27;;;;;;;25.45;4.70;;;;;;;16.31;nan;101260.81;5077360;28;20046;-82
2023/06/02 08:11:54;;;;;;;3.97;1.83;;;;;;;16.30;nan;101251.94;5061176;28;20044;-82
2023/06/02 08:14:21;;;;;;;3.90;1.83;;;;;;;16.45;nan;101255.88;5104857;27;20043;-81
2023/06/02 08:16:50;;;;;;;6.28;1.40;;;;;;;16.44;nan;101256.78;5088009;28;20046;-82
2023/06/02 08:19:24;;;;;;;3.30;1.50;;;;;;;16.77;nan;101257.41;5080434;28;20046;-82
2023/06/02 08:21:51;;;;;;;3.28;1.40;;;;;;;17.15;nan;101260.44;5090957;28;20034;-82
2023/06/02 08:24:20;;;;;;;3.78;1.60;;;;;;;17.39;nan;101255.94;5080640;28;20039;-83
2023/06/02 08:26:48;;;;;;;3.58;1.40;;;;;;;17.41;nan;101259.47;5086089;28;20046;-82
2023/06/02 08:29:16;;;;;;;3.78;1.70;;;;;;;17.50;nan;101258.22;5069690;28;20039;-81
2023/06/02 08:31:43;;;;;;;4.22;1.55;;;;;;;17.28;nan;101266.19;5093932;28;20075;-80
2023/06/02 08:34:10;;;;;;;4.00;1.63;;;;;;;17.47;nan;101267.22;5083552;28;20481;-80
2023/06/02 08:36:37;;;;;;;12.30;3.00;;;;;;;17.96;nan;101257.25;5075693;28;20039;-81
2023/06/02 08:39:07;;;;;;;8.30;2.65;;;;;;;18.03;nan;101260.53;5051733;28;20046;-82
2023/06/02 08:41:38;;;;;;;3.28;1.58;;;;;;;17.63;nan;101260.31;5086047;28;20032;-81
2023/06/02 08:44:05;;;;;;;2.45;1.30;;;;;;;17.80;nan;101265.03;5058217;28;20106;-82
2023/06/02 08:46:33;;;;;;;2.60;1.30;;;;;;;17.98;nan;101268.75;5074646;28;20508;-81
2023/06/02 08:49:00;;;;;;;352.60;44.00;;;;;;;18.20;nan;101264.25;5065456;28;20031;-81
2023/06/02 08:51:35;;;;;;;4.40;2.13;;;;;;;18.02;nan;101274.84;5065463;28;20074;-81
2023/06/02 08:54:05;;;;;;;3.22;1.35;;;;;;;17.55;nan;101282.94;5061355;28;20032;-81
2023/06/02 08:56:33;;;;;;;2.08;1.42;;;;;;;18.30;nan;101278.09;5066933;28;20057;-82
2023/06/02 08:59:01;;;;;;;2.75;1.40;;;;;;;18.99;nan;101283.09;5065684;28;20050;-81
2023/06/02 09:01:28;;;;;;;2.88;1.20;;;;;;;19.08;nan;101278.19;5081742;28;20031;-81
2023/06/02 09:03:55;;;;;;;2.83;1.58;;;;;;;18.74;nan;101286.00;5089613;28;20056;-83
2023/06/02 09:06:25;;;;;;;2.28;1.20;;;;;;;19.36;nan;101282.28;5059896;28;20087;-81
2023/06/02 09:09:00;;;;;;;3.38;1.05;;;;;;;19.66;nan;101278.16;5082962;28;20051;-80
2023/06/02 09:11:29;;;;;;;20.55;4.07;;;;;;;19.35;nan;101281.41;5080453;28;20050;-80
2023/06/02 09:13:57;;;;;;;6.30;1.70;;;;;;;19.05;nan;101275.66;5072654;28;20040;-82
2023/06/02 09:16:36;;;;;;;4.93;1.50;;;;;;;19.48;nan;101279.00;5074906;28;20046;-79
2023/06/02 09:19:03;;;;;;;3.15;1.42;;;;;;;19.72;nan;101268.97;5069757;28;20477;-80
2023/06/02 09:21:32;;;;;;;3.10;1.70;;;;;;;19.35;nan;101285.91;5074892;28;20040;-81
2023/06/02 09:24:01;;;;;;;3.47;1.52;;;;;;;19.86;nan;101287.06;5073377;28;20035;-81
2023/06/02 09:26:31;;;;;;;3.22;1.30;;;;;;;20.22;nan;101273.63;5075889;28;20415;-81
2023/06/02 09:29:15;;;;;;;4.43;1.33;;;;;;;20.02;nan;101284.50;5073943;28;20306;-79
2023/06/02 09:31:47;;;;;;;23.20;3.53;;;;;;;20.48;nan;101291.97;5099585;28;20660;-81
2023/06/02 09:34:17;;;;;;;3.63;1.92;;;;;;;20.36;nan;101303.31;5056791;28;20065;-80
2023/06/02 09:36:47;;;;;;;3.60;1.20;;;;;;;20.74;nan;101297.78;5068189;28;20035;-82
2023/06/02 09:39:14;;;;;;;4.15;1.50;;;;;;;20.41;nan;101306.59;5065727;28;20039;-81
2023/06/02 09:41:41;;;;;;;3.80;1.42;;;;;;;20.54;nan;101303.34;5067304;28;20042;-81
2023/06/02 09:44:15;;;;;;;2.42;1.17;;;;;;;20.54;nan;101303.34;5064466;28;20040;-81
2023/06/02 09:46:43;;;;;;;2.92;1.30;;;;;;;20.61;nan;101308.31;5068665;28;20110;-81
2023/06/02 09:49:11;;;;;;;4.60;1.27;;;;;;;20.54;nan;101306.03;5066250;28;20040;-82
2023/06/02 09:51:39;;;;;;;2.10;1.00;;;;;;;20.23;nan;101303.06;5067928;28;20050;-82
2023/06/02 09:54:07;;;;;;;4.20;1.30;;;;;;;20.30;nan;101317.03;5052033;28;20036;-81
2023/06/02 09:56:36;;;;;;;2.35;0.90;;;;;;;20.69;nan;101300.75;5072486;28;20048;-79
2023/06/02 09:59:06;;;;;;;1.77;0.90;;;;;;;20.87;nan;101309.63;5091263;28;20051;-79
2023/06/02 10:01:34;;;;;;;4.95;1.38;;;;;;;20.42;nan;101320.91;5075841;28;20039;-80
2023/06/02 10:04:03;;;;;;;9.15;1.75;;;;;;;20.42;nan;101318.22;5070738;28;20041;-81
2023/06/02 10:06:48;;;;;;;1.42;0.93;;;;;;;20.65;nan;101327.81;5085147;28;20409;-81
2023/06/02 10:09:46;;;;;;;2.90;0.98;;;;;;;20.04;nan;101322.84;5083871;28;20036;-80
2023/06/02 10:12:24;;;;;;;2.45;1.10;;;;;;;20.15;nan;101318.66;5062408;28;20499;-79
2023/06/02 10:15:03;;;;;;;2.15;0.93;;;;;;;20.69;nan;101332.09;5062117;28;20502;-81
2023/06/02 10:17:56;;;;;;;5.30;1.05;;;;;;;20.92;nan;101317.44;5069771;28;20046;-81
2023/06/02 10:20:26;;;;;;;1.83;1.00;;;;;;;21.12;nan;101319.94;5078674;27;20285;-81
2023/06/02 10:23:23;;;;;;;16.80;2.70;;;;;;;20.92;nan;101318.28;5089683;28;20036;-81
2023/06/02 10:25:53;;;;;;;2.65;1.13;;;;;;;20.93;nan;101319.16;5067285;28;20044;-81
2023/06/02 10:28:20;;;;;;;2.45;0.90;;;;;;;21.07;nan;101319.31;5107839;28;20032;-82
2023/06/02 10:30:47;;;;;;;2.90;1.00;;;;;;;21.30;nan;101315.41;5091894;28;20200;-79
2023/06/02 10:33:41;;;;;;;2.67;0.75;;;;;;;20.48;nan;101323.31;5113294;27;20441;-82
2023/06/02 10:36:08;;;;;;;5.30;1.13;;;;;;;20.86;nan;101339.25;5085856;28;20042;-80
2023/06/02 10:38:36;;;;;;;26.35;4.28;;;;;;;20.77;nan;101330.75;5067506;28;20032;-80
2023/06/02 10:41:03;;;;;;;5.70;2.25;;;;;;;20.88;nan;101324.78;5080914;28;20044;-80
2023/06/02 10:43:32;;;;;;;3.30;1.15;;;;;;;21.22;nan;101314.94;5089584;28;20050;-80
2023/06/02 10:46:20;;;;;;;1.50;0.70;;;;;;;21.02;nan;101324.94;5073182;28;20040;-80
2023/06/02 10:48:48;;;;;;;2.25;0.90;;;;;;;21.28;nan;101338.81;5078129;28;20031;-81
2023/06/02 10:51:15;;;;;;;4.80;0.93;;;;;;;21.28;nan;101325.38;5077444;28;20408;-82
2023/06/02 10:54:07;;;;;;;4.15;0.85;;;;;;;21.01;nan;101343.81;5075008;28;20034;-80
2023/06/02 10:56:43;;;;;;;3.25;0.93;;;;;;;20.95;nan;101336.09;5094434;28;20042;-80
2023/06/02 10:59:30;;;;;;;19.38;3.03;;;;;;;20.84;nan;101335.75;5069822;28;20039;-81
2023/06/02 11:01:57;;;;;;;2.83;1.00;;;;;;;20.89;nan;101342.66;5090369;28;20041;-80
2023/06/02 11:04:35;;;;;;;1.80;0.88;;;;;;;20.40;nan;101339.75;5077996;28;20046;-80
2023/06/02 11:07:18;;;;;;;1.50;0.88;;;;;;;20.28;nan;101358.31;5070574;28;20031;-81
2023/06/02 11:09:46;;;;;;;3.50;1.00;;;;;;;20.31;nan;101358.16;5070161;28;20035;-81
2023/06/02 11:12:13;;;;;;;3.55;1.10;;;;;;;20.12;nan;101364.44;5095314;28;20126;-81
2023/06/02 11:15:02;;;;;;;2.35;0.90;;;;;;;20.00;nan;101359.66;5085782;28;20520;-82
2023/06/02 11:17:35;;;;;;;3.33;0.85;;;;;;;20.41;nan;101356.75;5090328;28;20036;-82
2023/06/02 11:20:05;;;;;;;;;;;;;;;20.37;nan;101341.75;5087998;28;20039;-81
2023/06/02 11:22:33;;;;;;;2.72;0.80;;;;;;;20.63;nan;101364.63;5071727;28;19920;-81
2023/06/02 11:25:03;;;;;;;1.25;0.70;;;;;;;20.78;nan;101353.97;5070330;28;20042;-80
2023/06/02 11:27:45;;;;;;;130.30;17.98;;;;;;;20.69;nan;101348.19;5098118;28;20493;-80
2023/06/02 11:30:17;;;;;;;3.15;1.00;;;;;;;20.15;nan;101348.16;5072582;28;20050;-80
2023/06/02 11:32:47;;;;;;;2.40;0.80;;;;;;;20.05;nan;101346.03;5090916;27;20043;-80
2023/06/02 11:35:23;;;;;;;1.85;0.65;;;;;;;20.01;nan;101355.16;5091651;28;20040;-80
2023/06/02 11:38:04;;;;;;;1.35;0.70;;;;;;;20.17;nan;101351.63;5101607;28;20032;-81
2023/06/02 11:40:35;;;;;;;1.10;1.00;;;;;;;20.60;nan;101357.59;5088150;28;20103;-83
2023/06/02 11:43:03;;;;;;;9.05;2.05;;;;;;;20.23;nan;101371.94;5079255;28;20080;-81
2023/06/02 11:45:31;;;;;;;1.45;0.70;;;;;;;20.05;nan;101367.50;5084548;28;20115;-83
2023/06/02 11:48:11;;;;;;;8.57;7.88;;;;;;;20.54;nan;101365.94;5098659;28;20110;-81
2023/06/02 11:50:38;;;;;;;2.45;1.08;;;;;;;20.25;nan;101365.53;5071640;27;20035;-82
2023/06/02 11:53:14;;;;;;;0.82;0.68;;;;;;;20.40;nan;101366.59;5085468;28;20400;-83